sensor_id;sensor_type;location;lat;lon;timestamp;temperature;humidity
1590;DHT22;788;48.720;9.158;2022-09-27T00:00:05;10.10;99.90
1590;DHT22;788;48.720;9.158;2022-09-27T00:02:32;10.10;99.90
1590;DHT22;788;48.720;9.158;2022-09-27T00:04:58;10.00;99.90
1590;DHT22;788;48.720;9.158;2022-09-27T00:07:25;10.10;99.90
1590;DHT22;788;48.720;9.158;2022-09-27T00:09:52;10.10;99.90
1590;DHT22;788;48.720;9.158;2022-09-27T00:12:20;10.10;99.90
1590;DHT22;788;48.720;9.158;2022-09-27T00:14:47;10.10;99.90
1590;DHT22;788;48.720;9.158;2022-09-27T00:17:13;10.20;99.90
1590;DHT22;788;48.720;9.158;2022-09-27T00:19:40;10.20;99.90
1590;DHT22;788;48.720;9.158;2022-09-27T00:22:07;10.20;99.90
1590;DHT22;788;48.720;9.158;2022-09-27T00:24:34;10.20;99.90
1590;DHT22;788;48.720;9.158;2022-09-27T00:27:00;10.20;99.90
1590;DHT22;788;48.720;9.158;2022-09-27T00:29:29;10.20;99.90
1590;DHT22;788;48.720;9.158;2022-09-27T00:31:55;10.20;99.90
1590;DHT22;788;48.720;9.158;2022-09-27T00:34:24;10.30;99.90
1590;DHT22;788;48.720;9.158;2022-09-27T00:36:51;10.30;99.90
1590;DHT22;788;48.720;9.158;2022-09-27T00:39:20;10.30;99.90
1590;DHT22;788;48.720;9.158;2022-09-27T00:41:46;10.40;99.90
1590;DHT22;788;48.720;9.158;2022-09-27T00:47:30;10.30;99.90
1590;DHT22;788;48.720;9.158;2022-09-27T00:50:02;10.10;99.90
1590;DHT22;788;48.720;9.158;2022-09-27T00:52:35;10.20;99.90
1590;DHT22;788;48.720;9.158;2022-09-27T00:55:10;10.30;99.90
1590;DHT22;788;48.720;9.158;2022-09-27T00:57:38;10.20;99.90
1590;DHT22;788;48.720;9.158;2022-09-27T01:00:08;10.20;99.90
1590;DHT22;788;48.720;9.158;2022-09-27T01:02:38;10.20;99.90
1590;DHT22;788;48.720;9.158;2022-09-27T01:05:07;10.20;99.90
1590;DHT22;788;48.720;9.158;2022-09-27T01:07:35;10.10;99.90
1590;DHT22;788;48.720;9.158;2022-09-27T01:10:03;10.20;99.90
1590;DHT22;788;48.720;9.158;2022-09-27T01:12:35;10.20;99.90
1590;DHT22;788;48.720;9.158;2022-09-27T01:15:12;10.20;99.90
1590;DHT22;788;48.720;9.158;2022-09-27T01:17:50;10.10;99.90
1590;DHT22;788;48.720;9.158;2022-09-27T01:23:49;10.20;99.90
1590;DHT22;788;48.720;9.158;2022-09-27T01:26:29;10.10;99.90
1590;DHT22;788;48.720;9.158;2022-09-27T01:29:03;10.20;99.90
1590;DHT22;788;48.720;9.158;2022-09-27T01:31:39;10.20;99.90
1590;DHT22;788;48.720;9.158;2022-09-27T01:34:12;10.30;99.90
1590;DHT22;788;48.720;9.158;2022-09-27T01:36:52;10.30;99.90
1590;DHT22;788;48.720;9.158;2022-09-27T01:39:31;10.20;99.90
1590;DHT22;788;48.720;9.158;2022-09-27T01:42:01;10.20;99.90
1590;DHT22;788;48.720;9.158;2022-09-27T01:44:34;10.30;99.90
1590;DHT22;788;48.720;9.158;2022-09-27T01:47:09;10.30;99.90
1590;DHT22;788;48.720;9.158;2022-09-27T01:49:40;10.40;99.90
1590;DHT22;788;48.720;9.158;2022-09-27T01:52:10;10.40;99.90
1590;DHT22;788;48.720;9.158;2022-09-27T01:54:41;10.40;99.90
1590;DHT22;788;48.720;9.158;2022-09-27T01:57:10;10.40;99.90
1590;DHT22;788;48.720;9.158;2022-09-27T01:59:44;10.40;99.90
1590;DHT22;788;48.720;9.158;2022-09-27T02:02:15;10.50;99.90
1590;DHT22;788;48.720;9.158;2022-09-27T02:04:43;10.50;99.90
1590;DHT22;788;48.720;9.158;2022-09-27T02:07:17;10.50;99.90
1590;DHT22;788;48.720;9.158;2022-09-27T02:09:47;10.60;99.90
1590;DHT22;788;48.720;9.158;2022-09-27T02:12:19;10.60;99.90
1590;DHT22;788;48.720;9.158;2022-09-27T02:14:51;10.60;99.90
1590;DHT22;788;48.720;9.158;2022-09-27T02:17:24;10.70;99.90
1590;DHT22;788;48.720;9.158;2022-09-27T02:20:01;10.60;99.90
1590;DHT22;788;48.720;9.158;2022-09-27T02:22:33;10.50;99.90
1590;DHT22;788;48.720;9.158;2022-09-27T02:25:07;10.50;99.90
1590;DHT22;788;48.720;9.158;2022-09-27T02:27:40;10.60;99.90
1590;DHT22;788;48.720;9.158;2022-09-27T02:30:12;10.50;99.90
1590;DHT22;788;48.720;9.158;2022-09-27T02:32:42;10.50;99.90
1590;DHT22;788;48.720;9.158;2022-09-27T02:35:12;10.30;99.90
1590;DHT22;788;48.720;9.158;2022-09-27T02:37:41;10.30;99.90
1590;DHT22;788;48.720;9.158;2022-09-27T02:40:08;10.20;99.90
1590;DHT22;788;48.720;9.158;2022-09-27T02:42:36;10.20;99.90
1590;DHT22;788;48.720;9.158;2022-09-27T02:45:05;10.20;99.90
1590;DHT22;788;48.720;9.158;2022-09-27T02:47:53;10.10;99.90
1590;DHT22;788;48.720;9.158;2022-09-27T02:50:36;10.00;99.90
1590;DHT22;788;48.720;9.158;2022-09-27T02:53:13;10.00;99.90
1590;DHT22;788;48.720;9.158;2022-09-27T02:55:47;10.00;99.90
1590;DHT22;788;48.720;9.158;2022-09-27T02:58:21;9.90;99.90
1590;DHT22;788;48.720;9.158;2022-09-27T03:00:56;9.90;99.90
1590;DHT22;788;48.720;9.158;2022-09-27T03:03:32;9.90;99.90
1590;DHT22;788;48.720;9.158;2022-09-27T03:06:05;9.80;99.90
1590;DHT22;788;48.720;9.158;2022-09-27T03:08:33;9.70;99.90
1590;DHT22;788;48.720;9.158;2022-09-27T03:11:00;9.70;99.90
1590;DHT22;788;48.720;9.158;2022-09-27T03:13:27;9.60;99.90
1590;DHT22;788;48.720;9.158;2022-09-27T03:15:53;9.50;99.90
1590;DHT22;788;48.720;9.158;2022-09-27T03:18:20;9.50;99.90
1590;DHT22;788;48.720;9.158;2022-09-27T03:20:49;9.50;99.90
1590;DHT22;788;48.720;9.158;2022-09-27T03:23:17;9.40;99.90
1590;DHT22;788;48.720;9.158;2022-09-27T03:25:44;9.40;99.90
1590;DHT22;788;48.720;9.158;2022-09-27T03:28:11;9.40;99.90
1590;DHT22;788;48.720;9.158;2022-09-27T03:30:37;9.40;99.90
1590;DHT22;788;48.720;9.158;2022-09-27T03:33:06;9.40;99.90
1590;DHT22;788;48.720;9.158;2022-09-27T03:35:33;9.40;99.90
1590;DHT22;788;48.720;9.158;2022-09-27T03:38:02;9.50;99.90
1590;DHT22;788;48.720;9.158;2022-09-27T03:40:29;9.40;99.90
1590;DHT22;788;48.720;9.158;2022-09-27T03:42:56;9.40;99.90
1590;DHT22;788;48.720;9.158;2022-09-27T03:45:23;9.40;99.90
1590;DHT22;788;48.720;9.158;2022-09-27T03:47:49;9.30;99.90
1590;DHT22;788;48.720;9.158;2022-09-27T03:50:16;9.40;99.90
1590;DHT22;788;48.720;9.158;2022-09-27T03:52:43;9.30;99.90
1590;DHT22;788;48.720;9.158;2022-09-27T03:55:12;9.30;99.90
1590;DHT22;788;48.720;9.158;2022-09-27T03:57:43;9.30;99.90
1590;DHT22;788;48.720;9.158;2022-09-27T04:00:11;9.30;99.90
1590;DHT22;788;48.720;9.158;2022-09-27T04:02:38;9.40;99.90
1590;DHT22;788;48.720;9.158;2022-09-27T04:05:05;9.40;99.90
1590;DHT22;788;48.720;9.158;2022-09-27T04:07:32;9.50;99.90
1590;DHT22;788;48.720;9.158;2022-09-27T04:09:59;9.50;99.90
1590;DHT22;788;48.720;9.158;2022-09-27T04:12:27;9.60;99.90
1590;DHT22;788;48.720;9.158;2022-09-27T04:14:54;9.60;99.90
1590;DHT22;788;48.720;9.158;2022-09-27T04:17:20;9.60;99.90
1590;DHT22;788;48.720;9.158;2022-09-27T04:19:47;9.60;99.90
1590;DHT22;788;48.720;9.158;2022-09-27T04:22:14;9.60;99.90
1590;DHT22;788;48.720;9.158;2022-09-27T04:24:41;9.70;99.90
1590;DHT22;788;48.720;9.158;2022-09-27T04:27:07;9.60;99.90
1590;DHT22;788;48.720;9.158;2022-09-27T04:29:35;9.70;99.90
1590;DHT22;788;48.720;9.158;2022-09-27T04:32:06;9.70;99.90
1590;DHT22;788;48.720;9.158;2022-09-27T04:34:33;9.60;99.90
1590;DHT22;788;48.720;9.158;2022-09-27T04:37:17;9.70;99.90
1590;DHT22;788;48.720;9.158;2022-09-27T04:39:44;9.80;99.90
1590;DHT22;788;48.720;9.158;2022-09-27T04:42:10;9.80;99.90
1590;DHT22;788;48.720;9.158;2022-09-27T04:44:39;9.70;99.90
1590;DHT22;788;48.720;9.158;2022-09-27T04:47:05;9.80;99.90
1590;DHT22;788;48.720;9.158;2022-09-27T04:49:32;9.70;99.90
1590;DHT22;788;48.720;9.158;2022-09-27T04:51:59;9.60;99.90
1590;DHT22;788;48.720;9.158;2022-09-27T04:54:26;9.60;99.90
1590;DHT22;788;48.720;9.158;2022-09-27T04:56:53;9.70;99.90
1590;DHT22;788;48.720;9.158;2022-09-27T04:59:20;9.80;99.90
1590;DHT22;788;48.720;9.158;2022-09-27T05:01:48;9.70;99.90
1590;DHT22;788;48.720;9.158;2022-09-27T05:04:15;9.70;99.90
1590;DHT22;788;48.720;9.158;2022-09-27T05:06:42;9.70;99.90
1590;DHT22;788;48.720;9.158;2022-09-27T05:09:09;9.70;99.90
1590;DHT22;788;48.720;9.158;2022-09-27T05:11:35;9.70;99.90
1590;DHT22;788;48.720;9.158;2022-09-27T05:14:02;9.70;99.90
1590;DHT22;788;48.720;9.158;2022-09-27T05:16:29;9.80;99.90
1590;DHT22;788;48.720;9.158;2022-09-27T05:18:57;9.70;99.90
1590;DHT22;788;48.720;9.158;2022-09-27T05:21:24;9.60;99.90
1590;DHT22;788;48.720;9.158;2022-09-27T05:23:51;9.60;99.90
1590;DHT22;788;48.720;9.158;2022-09-27T05:26:18;9.60;99.90
1590;DHT22;788;48.720;9.158;2022-09-27T05:28:45;9.70;99.90
1590;DHT22;788;48.720;9.158;2022-09-27T05:31:12;9.70;99.90
1590;DHT22;788;48.720;9.158;2022-09-27T05:33:39;9.80;99.90
1590;DHT22;788;48.720;9.158;2022-09-27T05:36:08;9.80;99.90
1590;DHT22;788;48.720;9.158;2022-09-27T05:38:34;9.80;99.90
1590;DHT22;788;48.720;9.158;2022-09-27T05:41:01;9.80;99.90
1590;DHT22;788;48.720;9.158;2022-09-27T05:43:28;9.80;99.90
1590;DHT22;788;48.720;9.158;2022-09-27T05:45:56;9.80;99.90
1590;DHT22;788;48.720;9.158;2022-09-27T05:48:23;9.70;99.90
1590;DHT22;788;48.720;9.158;2022-09-27T05:50:49;9.80;99.90
1590;DHT22;788;48.720;9.158;2022-09-27T05:53:17;9.90;99.90
1590;DHT22;788;48.720;9.158;2022-09-27T05:55:44;9.70;99.90
1590;DHT22;788;48.720;9.158;2022-09-27T05:58:11;9.80;99.90
1590;DHT22;788;48.720;9.158;2022-09-27T06:00:41;9.80;99.90
1590;DHT22;788;48.720;9.158;2022-09-27T06:03:11;9.70;99.90
1590;DHT22;788;48.720;9.158;2022-09-27T06:05:39;9.70;99.90
1590;DHT22;788;48.720;9.158;2022-09-27T06:08:08;9.70;99.90
1590;DHT22;788;48.720;9.158;2022-09-27T06:10:37;9.80;99.90
1590;DHT22;788;48.720;9.158;2022-09-27T06:13:05;9.80;99.90
1590;DHT22;788;48.720;9.158;2022-09-27T06:15:33;9.80;99.90
1590;DHT22;788;48.720;9.158;2022-09-27T06:18:05;9.80;99.90
1590;DHT22;788;48.720;9.158;2022-09-27T06:20:32;9.70;99.90
1590;DHT22;788;48.720;9.158;2022-09-27T06:23:06;9.70;99.90
1590;DHT22;788;48.720;9.158;2022-09-27T06:25:35;9.70;99.90
1590;DHT22;788;48.720;9.158;2022-09-27T06:28:02;9.70;99.90
1590;DHT22;788;48.720;9.158;2022-09-27T06:30:30;9.80;99.90
1590;DHT22;788;48.720;9.158;2022-09-27T06:32:57;9.80;99.90
1590;DHT22;788;48.720;9.158;2022-09-27T06:35:25;9.80;99.90
1590;DHT22;788;48.720;9.158;2022-09-27T06:37:52;9.80;99.90
1590;DHT22;788;48.720;9.158;2022-09-27T06:40:20;9.80;99.90
1590;DHT22;788;48.720;9.158;2022-09-27T06:42:50;9.80;99.90
1590;DHT22;788;48.720;9.158;2022-09-27T06:45:17;9.80;99.90
1590;DHT22;788;48.720;9.158;2022-09-27T06:47:44;9.90;99.90
1590;DHT22;788;48.720;9.158;2022-09-27T06:50:12;9.90;99.90
1590;DHT22;788;48.720;9.158;2022-09-27T06:52:46;9.90;99.90
1590;DHT22;788;48.720;9.158;2022-09-27T06:55:13;9.80;99.90
1590;DHT22;788;48.720;9.158;2022-09-27T06:57:39;9.90;99.90
1590;DHT22;788;48.720;9.158;2022-09-27T07:00:25;9.90;99.90
1590;DHT22;788;48.720;9.158;2022-09-27T07:02:53;9.90;99.90
1590;DHT22;788;48.720;9.158;2022-09-27T07:05:25;10.10;99.90
1590;DHT22;788;48.720;9.158;2022-09-27T07:07:53;10.10;99.90
1590;DHT22;788;48.720;9.158;2022-09-27T07:10:22;10.10;99.90
1590;DHT22;788;48.720;9.158;2022-09-27T07:12:49;10.00;99.90
1590;DHT22;788;48.720;9.158;2022-09-27T07:15:17;10.10;99.90
1590;DHT22;788;48.720;9.158;2022-09-27T07:17:46;10.00;99.90
1590;DHT22;788;48.720;9.158;2022-09-27T07:20:13;10.00;99.90
1590;DHT22;788;48.720;9.158;2022-09-27T07:22:40;10.00;99.90
1590;DHT22;788;48.720;9.158;2022-09-27T07:25:08;10.10;99.90
1590;DHT22;788;48.720;9.158;2022-09-27T07:27:35;10.00;99.90
1590;DHT22;788;48.720;9.158;2022-09-27T07:30:02;10.00;99.90
1590;DHT22;788;48.720;9.158;2022-09-27T07:32:29;10.00;99.90
1590;DHT22;788;48.720;9.158;2022-09-27T07:34:57;9.90;99.90
1590;DHT22;788;48.720;9.158;2022-09-27T07:37:24;10.00;99.90
1590;DHT22;788;48.720;9.158;2022-09-27T07:39:51;10.00;99.90
1590;DHT22;788;48.720;9.158;2022-09-27T07:42:17;10.10;99.90
1590;DHT22;788;48.720;9.158;2022-09-27T07:44:45;10.20;99.90
1590;DHT22;788;48.720;9.158;2022-09-27T07:47:11;10.10;99.90
1590;DHT22;788;48.720;9.158;2022-09-27T07:49:38;10.20;99.90
1590;DHT22;788;48.720;9.158;2022-09-27T07:52:06;10.30;99.90
1590;DHT22;788;48.720;9.158;2022-09-27T07:54:33;10.40;99.90
1590;DHT22;788;48.720;9.158;2022-09-27T07:57:00;10.40;99.90
1590;DHT22;788;48.720;9.158;2022-09-27T07:59:27;10.40;99.90
1590;DHT22;788;48.720;9.158;2022-09-27T08:01:54;10.50;99.90
1590;DHT22;788;48.720;9.158;2022-09-27T08:04:21;10.50;99.90
1590;DHT22;788;48.720;9.158;2022-09-27T08:06:48;10.60;99.90
1590;DHT22;788;48.720;9.158;2022-09-27T08:09:16;10.50;99.90
1590;DHT22;788;48.720;9.158;2022-09-27T08:11:42;10.50;99.90
1590;DHT22;788;48.720;9.158;2022-09-27T08:14:10;10.50;99.90
1590;DHT22;788;48.720;9.158;2022-09-27T08:16:37;10.50;99.90
1590;DHT22;788;48.720;9.158;2022-09-27T08:19:04;10.50;99.90
1590;DHT22;788;48.720;9.158;2022-09-27T08:21:31;10.50;99.90
1590;DHT22;788;48.720;9.158;2022-09-27T08:23:58;10.60;99.90
1590;DHT22;788;48.720;9.158;2022-09-27T08:26:27;10.60;99.90
1590;DHT22;788;48.720;9.158;2022-09-27T08:28:54;10.70;99.90
1590;DHT22;788;48.720;9.158;2022-09-27T08:31:21;10.90;99.90
1590;DHT22;788;48.720;9.158;2022-09-27T08:33:50;11.10;99.90
1590;DHT22;788;48.720;9.158;2022-09-27T08:36:17;11.20;99.90
1590;DHT22;788;48.720;9.158;2022-09-27T08:38:47;11.30;99.90
1590;DHT22;788;48.720;9.158;2022-09-27T08:41:24;11.30;99.90
1590;DHT22;788;48.720;9.158;2022-09-27T08:44:05;11.20;99.90
1590;DHT22;788;48.720;9.158;2022-09-27T08:46:39;11.00;99.90
1590;DHT22;788;48.720;9.158;2022-09-27T08:49:11;10.70;99.90
1590;DHT22;788;48.720;9.158;2022-09-27T08:51:41;10.70;99.90
1590;DHT22;788;48.720;9.158;2022-09-27T08:54:13;10.70;99.90
1590;DHT22;788;48.720;9.158;2022-09-27T08:56:42;10.70;99.90
1590;DHT22;788;48.720;9.158;2022-09-27T08:59:12;10.60;99.90
1590;DHT22;788;48.720;9.158;2022-09-27T09:01:40;10.50;99.90
1590;DHT22;788;48.720;9.158;2022-09-27T09:04:08;10.70;99.90
1590;DHT22;788;48.720;9.158;2022-09-27T09:06:40;10.80;99.90
1590;DHT22;788;48.720;9.158;2022-09-27T09:09:16;11.00;99.90
1590;DHT22;788;48.720;9.158;2022-09-27T09:11:53;11.20;99.90
1590;DHT22;788;48.720;9.158;2022-09-27T09:14:57;11.40;99.90
1590;DHT22;788;48.720;9.158;2022-09-27T09:17:40;11.40;99.90
1590;DHT22;788;48.720;9.158;2022-09-27T09:20:18;11.60;99.90
1590;DHT22;788;48.720;9.158;2022-09-27T09:22:58;11.60;99.90
1590;DHT22;788;48.720;9.158;2022-09-27T09:25:35;11.60;99.90
1590;DHT22;788;48.720;9.158;2022-09-27T09:28:17;11.60;99.90
1590;DHT22;788;48.720;9.158;2022-09-27T09:30:54;11.70;99.90
1590;DHT22;788;48.720;9.158;2022-09-27T09:33:25;11.80;99.90
1590;DHT22;788;48.720;9.158;2022-09-27T09:35:57;11.90;99.90
1590;DHT22;788;48.720;9.158;2022-09-27T09:38:34;11.90;99.90
1590;DHT22;788;48.720;9.158;2022-09-27T09:41:06;11.60;99.90
1590;DHT22;788;48.720;9.158;2022-09-27T09:43:39;11.60;99.90
1590;DHT22;788;48.720;9.158;2022-09-27T09:46:10;11.30;99.90
1590;DHT22;788;48.720;9.158;2022-09-27T09:48:41;11.40;99.90
1590;DHT22;788;48.720;9.158;2022-09-27T09:51:12;11.40;99.90
1590;DHT22;788;48.720;9.158;2022-09-27T09:53:46;11.60;99.90
1590;DHT22;788;48.720;9.158;2022-09-27T09:56:18;11.70;99.90
1590;DHT22;788;48.720;9.158;2022-09-27T09:58:48;11.90;99.90
1590;DHT22;788;48.720;9.158;2022-09-27T10:01:20;12.10;99.90
1590;DHT22;788;48.720;9.158;2022-09-27T10:03:48;12.20;99.90
1590;DHT22;788;48.720;9.158;2022-09-27T10:06:16;12.40;99.90
1590;DHT22;788;48.720;9.158;2022-09-27T10:08:43;12.40;99.90
1590;DHT22;788;48.720;9.158;2022-09-27T10:11:18;12.50;99.90
1590;DHT22;788;48.720;9.158;2022-09-27T10:13:46;12.60;99.90
1590;DHT22;788;48.720;9.158;2022-09-27T10:16:16;12.60;99.90
1590;DHT22;788;48.720;9.158;2022-09-27T10:18:45;12.70;99.90
1590;DHT22;788;48.720;9.158;2022-09-27T10:21:17;12.90;99.90
1590;DHT22;788;48.720;9.158;2022-09-27T10:24:02;13.20;99.90
1590;DHT22;788;48.720;9.158;2022-09-27T10:26:30;13.20;99.90
1590;DHT22;788;48.720;9.158;2022-09-27T10:28:57;13.10;99.90
1590;DHT22;788;48.720;9.158;2022-09-27T10:31:39;13.20;99.90
1590;DHT22;788;48.720;9.158;2022-09-27T10:34:17;13.00;99.90
1590;DHT22;788;48.720;9.158;2022-09-27T10:36:45;12.90;99.90
1590;DHT22;788;48.720;9.158;2022-09-27T10:39:27;12.80;99.90
1590;DHT22;788;48.720;9.158;2022-09-27T10:41:54;12.90;99.90
1590;DHT22;788;48.720;9.158;2022-09-27T10:44:25;12.90;99.90
1590;DHT22;788;48.720;9.158;2022-09-27T10:46:53;13.00;99.90
1590;DHT22;788;48.720;9.158;2022-09-27T10:49:25;13.00;99.90
1590;DHT22;788;48.720;9.158;2022-09-27T10:51:54;13.00;99.90
1590;DHT22;788;48.720;9.158;2022-09-27T10:54:23;13.00;99.90
1590;DHT22;788;48.720;9.158;2022-09-27T10:56:57;13.10;99.90
1590;DHT22;788;48.720;9.158;2022-09-27T10:59:26;13.10;99.90
1590;DHT22;788;48.720;9.158;2022-09-27T11:01:55;13.20;99.90
1590;DHT22;788;48.720;9.158;2022-09-27T11:04:28;13.10;99.90
1590;DHT22;788;48.720;9.158;2022-09-27T11:07:12;13.10;99.90
1590;DHT22;788;48.720;9.158;2022-09-27T11:09:46;13.00;99.90
1590;DHT22;788;48.720;9.158;2022-09-27T11:12:15;12.80;99.90
1590;DHT22;788;48.720;9.158;2022-09-27T11:14:52;12.90;99.90
1590;DHT22;788;48.720;9.158;2022-09-27T11:17:26;13.10;99.90
1590;DHT22;788;48.720;9.158;2022-09-27T11:20:14;13.50;99.90
1590;DHT22;788;48.720;9.158;2022-09-27T11:22:58;13.70;99.90
1590;DHT22;788;48.720;9.158;2022-09-27T11:25:33;13.80;99.90
1590;DHT22;788;48.720;9.158;2022-09-27T11:28:11;13.60;99.90
1590;DHT22;788;48.720;9.158;2022-09-27T11:30:49;13.60;99.90
1590;DHT22;788;48.720;9.158;2022-09-27T11:33:34;13.40;99.90
1590;DHT22;788;48.720;9.158;2022-09-27T11:36:11;13.40;99.90
1590;DHT22;788;48.720;9.158;2022-09-27T11:38:52;13.20;99.90
1590;DHT22;788;48.720;9.158;2022-09-27T11:41:29;13.10;99.90
1590;DHT22;788;48.720;9.158;2022-09-27T11:44:15;13.10;99.90
1590;DHT22;788;48.720;9.158;2022-09-27T11:46:51;13.00;99.90
1590;DHT22;788;48.720;9.158;2022-09-27T11:49:44;13.10;99.90
1590;DHT22;788;48.720;9.158;2022-09-27T11:52:26;12.90;99.90
1590;DHT22;788;48.720;9.158;2022-09-27T11:55:04;13.10;99.90
1590;DHT22;788;48.720;9.158;2022-09-27T11:57:38;13.20;99.90
1590;DHT22;788;48.720;9.158;2022-09-27T12:00:13;13.20;99.90
1590;DHT22;788;48.720;9.158;2022-09-27T12:03:14;13.30;99.90
1590;DHT22;788;48.720;9.158;2022-09-27T12:05:59;13.50;99.90
1590;DHT22;788;48.720;9.158;2022-09-27T12:08:36;13.50;99.90
1590;DHT22;788;48.720;9.158;2022-09-27T12:11:13;13.60;99.90
1590;DHT22;788;48.720;9.158;2022-09-27T12:13:46;13.60;99.90
1590;DHT22;788;48.720;9.158;2022-09-27T12:16:15;13.70;99.90
1590;DHT22;788;48.720;9.158;2022-09-27T12:18:43;13.80;99.90
1590;DHT22;788;48.720;9.158;2022-09-27T12:21:12;14.00;99.90
1590;DHT22;788;48.720;9.158;2022-09-27T12:23:42;13.80;99.90
1590;DHT22;788;48.720;9.158;2022-09-27T12:26:13;13.80;99.90
1590;DHT22;788;48.720;9.158;2022-09-27T12:28:48;13.60;99.90
1590;DHT22;788;48.720;9.158;2022-09-27T12:31:20;13.30;99.90
1590;DHT22;788;48.720;9.158;2022-09-27T12:33:56;13.20;99.90
1590;DHT22;788;48.720;9.158;2022-09-27T12:36:31;13.20;99.90
1590;DHT22;788;48.720;9.158;2022-09-27T12:39:04;12.70;99.90
1590;DHT22;788;48.720;9.158;2022-09-27T12:41:35;12.60;99.90
1590;DHT22;788;48.720;9.158;2022-09-27T12:44:04;12.50;99.90
1590;DHT22;788;48.720;9.158;2022-09-27T12:46:42;12.30;99.90
1590;DHT22;788;48.720;9.158;2022-09-27T12:49:14;12.00;99.90
1590;DHT22;788;48.720;9.158;2022-09-27T12:51:46;12.10;99.90
1590;DHT22;788;48.720;9.158;2022-09-27T12:57:20;12.20;99.90
1590;DHT22;788;48.720;9.158;2022-09-27T13:00:02;12.40;99.90
1590;DHT22;788;48.720;9.158;2022-09-27T13:03:07;12.60;99.90
1590;DHT22;788;48.720;9.158;2022-09-27T13:05:50;12.80;99.90
1590;DHT22;788;48.720;9.158;2022-09-27T13:08:38;12.90;99.90
1590;DHT22;788;48.720;9.158;2022-09-27T13:11:12;13.10;99.90
1590;DHT22;788;48.720;9.158;2022-09-27T13:13:42;13.20;99.90
1590;DHT22;788;48.720;9.158;2022-09-27T13:16:09;13.10;99.90
1590;DHT22;788;48.720;9.158;2022-09-27T13:18:53;13.20;99.90
1590;DHT22;788;48.720;9.158;2022-09-27T13:21:55;13.20;99.90
1590;DHT22;788;48.720;9.158;2022-09-27T13:24:42;13.30;99.90
1590;DHT22;788;48.720;9.158;2022-09-27T13:27:39;13.10;99.90
1590;DHT22;788;48.720;9.158;2022-09-27T13:33:29;13.10;99.90
1590;DHT22;788;48.720;9.158;2022-09-27T13:36:17;13.10;99.90
1590;DHT22;788;48.720;9.158;2022-09-27T13:39:00;13.20;99.90
1590;DHT22;788;48.720;9.158;2022-09-27T13:41:37;13.30;99.90
1590;DHT22;788;48.720;9.158;2022-09-27T13:44:11;13.30;99.90
1590;DHT22;788;48.720;9.158;2022-09-27T13:46:45;13.20;99.90
1590;DHT22;788;48.720;9.158;2022-09-27T13:49:19;13.20;99.90
1590;DHT22;788;48.720;9.158;2022-09-27T13:51:50;13.40;99.90
1590;DHT22;788;48.720;9.158;2022-09-27T13:54:39;13.40;99.90
1590;DHT22;788;48.720;9.158;2022-09-27T13:57:50;13.20;99.90
1590;DHT22;788;48.720;9.158;2022-09-27T14:00:21;13.10;99.90
1590;DHT22;788;48.720;9.158;2022-09-27T14:02:59;13.20;99.90
1590;DHT22;788;48.720;9.158;2022-09-27T14:05:31;13.30;99.90
1590;DHT22;788;48.720;9.158;2022-09-27T14:08:00;13.30;99.90
1590;DHT22;788;48.720;9.158;2022-09-27T14:10:29;13.20;99.90
1590;DHT22;788;48.720;9.158;2022-09-27T14:12:59;13.00;99.90
1590;DHT22;788;48.720;9.158;2022-09-27T14:15:30;12.80;99.90
1590;DHT22;788;48.720;9.158;2022-09-27T14:17:58;12.60;99.90
1590;DHT22;788;48.720;9.158;2022-09-27T14:20:30;12.50;99.90
1590;DHT22;788;48.720;9.158;2022-09-27T14:22:57;12.40;99.90
1590;DHT22;788;48.720;9.158;2022-09-27T14:25:25;12.30;99.90
1590;DHT22;788;48.720;9.158;2022-09-27T14:27:51;12.30;99.90
1590;DHT22;788;48.720;9.158;2022-09-27T14:30:20;12.30;99.90
1590;DHT22;788;48.720;9.158;2022-09-27T14:32:49;12.10;99.90
1590;DHT22;788;48.720;9.158;2022-09-27T14:35:18;12.00;99.90
1590;DHT22;788;48.720;9.158;2022-09-27T14:38:04;11.90;99.90
1590;DHT22;788;48.720;9.158;2022-09-27T14:40:37;11.80;99.90
1590;DHT22;788;48.720;9.158;2022-09-27T14:43:05;11.90;99.90
1590;DHT22;788;48.720;9.158;2022-09-27T14:45:35;12.00;99.90
1590;DHT22;788;48.720;9.158;2022-09-27T14:48:18;12.10;99.90
1590;DHT22;788;48.720;9.158;2022-09-27T14:50:52;12.10;99.90
1590;DHT22;788;48.720;9.158;2022-09-27T14:53:21;12.30;99.90
1590;DHT22;788;48.720;9.158;2022-09-27T14:55:49;12.40;99.90
1590;DHT22;788;48.720;9.158;2022-09-27T14:58:20;12.30;99.90
1590;DHT22;788;48.720;9.158;2022-09-27T15:00:48;12.40;99.90
1590;DHT22;788;48.720;9.158;2022-09-27T15:03:20;12.30;99.90
1590;DHT22;788;48.720;9.158;2022-09-27T15:05:50;12.60;99.90
1590;DHT22;788;48.720;9.158;2022-09-27T15:08:20;12.80;99.90
1590;DHT22;788;48.720;9.158;2022-09-27T15:10:48;13.30;99.90
1590;DHT22;788;48.720;9.158;2022-09-27T15:13:17;13.90;99.90
1590;DHT22;788;48.720;9.158;2022-09-27T15:15:45;14.10;99.90
1590;DHT22;788;48.720;9.158;2022-09-27T15:18:41;14.10;98.70
1590;DHT22;788;48.720;9.158;2022-09-27T15:21:09;13.90;98.30
1590;DHT22;788;48.720;9.158;2022-09-27T15:23:37;13.90;99.00
1590;DHT22;788;48.720;9.158;2022-09-27T15:26:09;14.00;98.80
1590;DHT22;788;48.720;9.158;2022-09-27T15:28:41;13.70;98.60
1590;DHT22;788;48.720;9.158;2022-09-27T15:31:09;13.60;98.10
1590;DHT22;788;48.720;9.158;2022-09-27T15:33:37;13.50;98.30
1590;DHT22;788;48.720;9.158;2022-09-27T15:36:06;13.10;98.30
1590;DHT22;788;48.720;9.158;2022-09-27T15:38:34;12.70;98.60
1590;DHT22;788;48.720;9.158;2022-09-27T15:43:42;12.30;99.90
1590;DHT22;788;48.720;9.158;2022-09-27T15:46:33;12.40;99.90
1590;DHT22;788;48.720;9.158;2022-09-27T15:49:27;12.30;99.90
1590;DHT22;788;48.720;9.158;2022-09-27T15:51:56;12.30;99.90
1590;DHT22;788;48.720;9.158;2022-09-27T15:54:25;12.20;99.90
1590;DHT22;788;48.720;9.158;2022-09-27T15:56:55;12.00;99.90
1590;DHT22;788;48.720;9.158;2022-09-27T15:59:27;12.00;99.90
1590;DHT22;788;48.720;9.158;2022-09-27T16:01:56;12.00;99.90
1590;DHT22;788;48.720;9.158;2022-09-27T16:04:24;12.10;99.90
1590;DHT22;788;48.720;9.158;2022-09-27T16:06:51;12.00;99.90
1590;DHT22;788;48.720;9.158;2022-09-27T16:09:20;12.00;99.90
1590;DHT22;788;48.720;9.158;2022-09-27T16:11:48;11.90;99.90
1590;DHT22;788;48.720;9.158;2022-09-27T16:14:16;11.90;99.90
1590;DHT22;788;48.720;9.158;2022-09-27T16:16:44;11.80;99.90
1590;DHT22;788;48.720;9.158;2022-09-27T16:19:12;11.80;99.90
1590;DHT22;788;48.720;9.158;2022-09-27T16:21:40;11.70;99.90
1590;DHT22;788;48.720;9.158;2022-09-27T16:24:09;11.70;99.90
1590;DHT22;788;48.720;9.158;2022-09-27T16:26:36;11.70;99.90
1590;DHT22;788;48.720;9.158;2022-09-27T16:29:03;11.60;99.80
1590;DHT22;788;48.720;9.158;2022-09-27T16:31:30;11.50;99.90
1590;DHT22;788;48.720;9.158;2022-09-27T16:33:57;11.40;99.90
1590;DHT22;788;48.720;9.158;2022-09-27T16:36:24;11.50;99.90
1590;DHT22;788;48.720;9.158;2022-09-27T16:38:53;11.40;99.90
1590;DHT22;788;48.720;9.158;2022-09-27T16:41:21;11.40;99.90
1590;DHT22;788;48.720;9.158;2022-09-27T16:43:47;11.20;99.90
1590;DHT22;788;48.720;9.158;2022-09-27T16:46:15;11.10;99.90
1590;DHT22;788;48.720;9.158;2022-09-27T16:48:44;11.10;99.90
1590;DHT22;788;48.720;9.158;2022-09-27T16:51:13;11.10;99.90
1590;DHT22;788;48.720;9.158;2022-09-27T16:53:59;11.00;99.90
1590;DHT22;788;48.720;9.158;2022-09-27T16:56:27;11.10;99.90
1590;DHT22;788;48.720;9.158;2022-09-27T16:58:56;11.20;99.90
1590;DHT22;788;48.720;9.158;2022-09-27T17:01:23;11.10;99.90
1590;DHT22;788;48.720;9.158;2022-09-27T17:03:51;11.10;99.90